sensor_id;sensor_type;location;lat;lon;timestamp;P1;durP1;ratioP1;P2;durP2;ratioP2
69401;SDS011;56589;51.992;5.924;2023-04-01T00:02:09;4.22;;;1.33;;
69401;SDS011;56589;51.992;5.924;2023-04-01T00:04:34;5.15;;;1.33;;
69401;SDS011;56589;51.992;5.924;2023-04-01T00:07:00;7.00;;;1.30;;
69401;SDS011;56589;51.992;5.924;2023-04-01T00:09:26;7.78;;;1.40;;
69401;SDS011;56589;51.992;5.924;2023-04-01T00:11:55;4.15;;;1.42;;
69401;SDS011;56589;51.992;5.924;2023-04-01T00:14:21;4.75;;;1.30;;
69401;SDS011;56589;51.992;5.924;2023-04-01T00:16:47;4.75;;;1.45;;
69401;SDS011;56589;51.992;5.924;2023-04-01T00:19:12;5.90;;;1.48;;
69401;SDS011;56589;51.992;5.924;2023-04-01T00:21:38;3.10;;;1.23;;
69401;SDS011;56589;51.992;5.924;2023-04-01T00:24:04;4.82;;;1.30;;
69401;SDS011;56589;51.992;5.924;2023-04-01T00:26:30;2.65;;;1.30;;
69401;SDS011;56589;51.992;5.924;2023-04-01T00:28:58;2.38;;;1.20;;
69401;SDS011;56589;51.992;5.924;2023-04-01T00:31:24;4.10;;;2.10;;
69401;SDS011;56589;51.992;5.924;2023-04-01T00:33:50;3.70;;;1.40;;
69401;SDS011;56589;51.992;5.924;2023-04-01T00:36:18;4.68;;;1.35;;
69401;SDS011;56589;51.992;5.924;2023-04-01T00:38:46;3.63;;;1.73;;
69401;SDS011;56589;51.992;5.924;2023-04-01T00:41:13;2.33;;;1.83;;
69401;SDS011;56589;51.992;5.924;2023-04-01T00:43:41;5.18;;;1.63;;
69401;SDS011;56589;51.992;5.924;2023-04-01T00:46:10;7.63;;;2.08;;
69401;SDS011;56589;51.992;5.924;2023-04-01T00:48:37;3.53;;;1.90;;
69401;SDS011;56589;51.992;5.924;2023-04-01T00:51:09;3.95;;;2.30;;
69401;SDS011;56589;51.992;5.924;2023-04-01T00:53:41;6.25;;;2.22;;
69401;SDS011;56589;51.992;5.924;2023-04-01T00:56:13;6.00;;;2.35;;
69401;SDS011;56589;51.992;5.924;2023-04-01T00:58:43;3.72;;;2.55;;
69401;SDS011;56589;51.992;5.924;2023-04-01T01:01:16;4.63;;;3.50;;
69401;SDS011;56589;51.992;5.924;2023-04-01T01:03:43;7.28;;;3.58;;
69401;SDS011;56589;51.992;5.924;2023-04-01T01:09:17;6.80;;;3.85;;
69401;SDS011;56589;51.992;5.924;2023-04-01T01:12:02;7.75;;;4.47;;
69401;SDS011;56589;51.992;5.924;2023-04-01T01:14:37;8.70;;;4.88;;
69401;SDS011;56589;51.992;5.924;2023-04-01T01:17:23;7.83;;;5.57;;
69401;SDS011;56589;51.992;5.924;2023-04-01T01:26:34;12.98;;;5.90;;
69401;SDS011;56589;51.992;5.924;2023-04-01T01:32:31;9.70;;;6.32;;
69401;SDS011;56589;51.992;5.924;2023-04-01T01:35:26;12.13;;;6.75;;
69401;SDS011;56589;51.992;5.924;2023-04-01T01:37:58;11.95;;;6.78;;
69401;SDS011;56589;51.992;5.924;2023-04-01T01:40:35;9.25;;;6.57;;
69401;SDS011;56589;51.992;5.924;2023-04-01T01:43:06;14.50;;;6.85;;
69401;SDS011;56589;51.992;5.924;2023-04-01T01:45:40;10.30;;;6.53;;
69401;SDS011;56589;51.992;5.924;2023-04-01T01:48:13;10.52;;;6.95;;
69401;SDS011;56589;51.992;5.924;2023-04-01T01:50:45;10.38;;;7.05;;
69401;SDS011;56589;51.992;5.924;2023-04-01T01:53:13;11.88;;;7.45;;
69401;SDS011;56589;51.992;5.924;2023-04-01T01:55:40;11.10;;;6.70;;
69401;SDS011;56589;51.992;5.924;2023-04-01T01:58:09;10.63;;;6.80;;
69401;SDS011;56589;51.992;5.924;2023-04-01T02:00:44;11.73;;;6.68;;
69401;SDS011;56589;51.992;5.924;2023-04-01T02:03:15;10.23;;;5.40;;
69401;SDS011;56589;51.992;5.924;2023-04-01T02:05:47;9.15;;;5.50;;
69401;SDS011;56589;51.992;5.924;2023-04-01T02:08:16;13.32;;;6.05;;
69401;SDS011;56589;51.992;5.924;2023-04-01T02:10:49;9.95;;;5.32;;
69401;SDS011;56589;51.992;5.924;2023-04-01T02:13:25;9.98;;;5.45;;
69401;SDS011;56589;51.992;5.924;2023-04-01T02:16:02;10.13;;;5.93;;
69401;SDS011;56589;51.992;5.924;2023-04-01T02:18:36;15.98;;;5.25;;
69401;SDS011;56589;51.992;5.924;2023-04-01T02:21:07;16.05;;;5.22;;
69401;SDS011;56589;51.992;5.924;2023-04-01T02:23:35;15.32;;;4.93;;
69401;SDS011;56589;51.992;5.924;2023-04-01T02:26:03;12.43;;;4.20;;
69401;SDS011;56589;51.992;5.924;2023-04-01T02:28:32;12.20;;;3.67;;
69401;SDS011;56589;51.992;5.924;2023-04-01T02:31:02;12.38;;;3.80;;
69401;SDS011;56589;51.992;5.924;2023-04-01T02:33:29;12.20;;;3.65;;
69401;SDS011;56589;51.992;5.924;2023-04-01T02:35:56;9.38;;;3.88;;
69401;SDS011;56589;51.992;5.924;2023-04-01T02:38:26;13.77;;;4.43;;
69401;SDS011;56589;51.992;5.924;2023-04-01T02:40:56;16.92;;;4.90;;
69401;SDS011;56589;51.992;5.924;2023-04-01T02:43:25;16.33;;;5.07;;
69401;SDS011;56589;51.992;5.924;2023-04-01T02:45:51;14.15;;;5.43;;
69401;SDS011;56589;51.992;5.924;2023-04-01T02:48:17;17.23;;;4.80;;
69401;SDS011;56589;51.992;5.924;2023-04-01T02:50:42;16.52;;;4.80;;
69401;SDS011;56589;51.992;5.924;2023-04-01T02:53:08;11.13;;;3.92;;
69401;SDS011;56589;51.992;5.924;2023-04-01T02:55:37;10.27;;;3.38;;
69401;SDS011;56589;51.992;5.924;2023-04-01T02:58:02;9.75;;;3.30;;
69401;SDS011;56589;51.992;5.924;2023-04-01T03:00:28;6.90;;;3.47;;
69401;SDS011;56589;51.992;5.924;2023-04-01T03:02:55;10.95;;;3.50;;
69401;SDS011;56589;51.992;5.924;2023-04-01T03:05:21;13.70;;;3.75;;
69401;SDS011;56589;51.992;5.924;2023-04-01T03:07:47;12.02;;;5.20;;
69401;SDS011;56589;51.992;5.924;2023-04-01T03:10:13;9.15;;;4.20;;
69401;SDS011;56589;51.992;5.924;2023-04-01T03:12:42;6.78;;;3.78;;
69401;SDS011;56589;51.992;5.924;2023-04-01T03:15:09;6.13;;;3.63;;
69401;SDS011;56589;51.992;5.924;2023-04-01T03:17:36;4.53;;;3.30;;
69401;SDS011;56589;51.992;5.924;2023-04-01T03:20:03;3.92;;;3.00;;
69401;SDS011;56589;51.992;5.924;2023-04-01T03:22:29;4.72;;;2.67;;
69401;SDS011;56589;51.992;5.924;2023-04-01T03:24:55;6.03;;;3.20;;
69401;SDS011;56589;51.992;5.924;2023-04-01T03:27:21;3.47;;;3.03;;
69401;SDS011;56589;51.992;5.924;2023-04-01T03:29:49;6.47;;;3.55;;
69401;SDS011;56589;51.992;5.924;2023-04-01T03:32:15;6.15;;;3.40;;
69401;SDS011;56589;51.992;5.924;2023-04-01T03:34:41;6.97;;;3.40;;
69401;SDS011;56589;51.992;5.924;2023-04-01T03:37:07;5.68;;;3.60;;
69401;SDS011;56589;51.992;5.924;2023-04-01T03:39:33;5.82;;;3.28;;
69401;SDS011;56589;51.992;5.924;2023-04-01T03:41:58;5.78;;;3.63;;
69401;SDS011;56589;51.992;5.924;2023-04-01T03:44:24;6.60;;;3.90;;
69401;SDS011;56589;51.992;5.924;2023-04-01T03:46:52;4.85;;;3.83;;
69401;SDS011;56589;51.992;5.924;2023-04-01T03:49:18;7.90;;;3.70;;
69401;SDS011;56589;51.992;5.924;2023-04-01T03:51:44;5.97;;;3.67;;
69401;SDS011;56589;51.992;5.924;2023-04-01T03:54:10;5.43;;;3.92;;
69401;SDS011;56589;51.992;5.924;2023-04-01T03:56:36;4.80;;;3.55;;
69401;SDS011;56589;51.992;5.924;2023-04-01T03:59:02;6.18;;;4.13;;
69401;SDS011;56589;51.992;5.924;2023-04-01T04:01:31;5.30;;;4.03;;
69401;SDS011;56589;51.992;5.924;2023-04-01T04:03:59;6.43;;;4.45;;
69401;SDS011;56589;51.992;5.924;2023-04-01T04:06:26;5.88;;;3.95;;
69401;SDS011;56589;51.992;5.924;2023-04-01T04:08:52;5.40;;;4.25;;
69401;SDS011;56589;51.992;5.924;2023-04-01T04:11:19;8.35;;;3.95;;
69401;SDS011;56589;51.992;5.924;2023-04-01T04:13:46;4.93;;;3.88;;
69401;SDS011;56589;51.992;5.924;2023-04-01T04:16:12;6.43;;;4.00;;
69401;SDS011;56589;51.992;5.924;2023-04-01T04:18:39;7.40;;;4.00;;
69401;SDS011;56589;51.992;5.924;2023-04-01T04:21:10;5.32;;;3.90;;
69401;SDS011;56589;51.992;5.924;2023-04-01T04:23:38;5.80;;;3.92;;
69401;SDS011;56589;51.992;5.924;2023-04-01T04:26:04;6.68;;;4.78;;
69401;SDS011;56589;51.992;5.924;2023-04-01T04:28:33;6.60;;;4.93;;
69401;SDS011;56589;51.992;5.924;2023-04-01T04:30:59;6.95;;;4.65;;
69401;SDS011;56589;51.992;5.924;2023-04-01T04:33:26;7.60;;;3.95;;
69401;SDS011;56589;51.992;5.924;2023-04-01T04:35:54;8.95;;;4.88;;
69401;SDS011;56589;51.992;5.924;2023-04-01T04:38:25;8.75;;;5.28;;
69401;SDS011;56589;51.992;5.924;2023-04-01T04:40:52;9.27;;;4.90;;
69401;SDS011;56589;51.992;5.924;2023-04-01T04:43:18;7.88;;;5.55;;
69401;SDS011;56589;51.992;5.924;2023-04-01T04:45:44;7.60;;;5.40;;
69401;SDS011;56589;51.992;5.924;2023-04-01T04:48:11;8.23;;;5.50;;
69401;SDS011;56589;51.992;5.924;2023-04-01T04:50:40;7.35;;;6.00;;
69401;SDS011;56589;51.992;5.924;2023-04-01T04:53:06;9.20;;;5.90;;
69401;SDS011;56589;51.992;5.924;2023-04-01T04:55:36;9.55;;;5.60;;
69401;SDS011;56589;51.992;5.924;2023-04-01T04:58:02;9.25;;;5.47;;
69401;SDS011;56589;51.992;5.924;2023-04-01T05:00:28;7.00;;;4.95;;
69401;SDS011;56589;51.992;5.924;2023-04-01T05:02:54;6.15;;;5.00;;
69401;SDS011;56589;51.992;5.924;2023-04-01T05:05:20;7.45;;;5.45;;
69401;SDS011;56589;51.992;5.924;2023-04-01T05:07:45;9.43;;;5.32;;
69401;SDS011;56589;51.992;5.924;2023-04-01T05:10:11;6.82;;;4.53;;
69401;SDS011;56589;51.992;5.924;2023-04-01T05:12:39;5.72;;;4.82;;
69401;SDS011;56589;51.992;5.924;2023-04-01T05:15:06;5.43;;;4.50;;
69401;SDS011;56589;51.992;5.924;2023-04-01T05:17:33;7.00;;;5.43;;
69401;SDS011;56589;51.992;5.924;2023-04-01T05:19:59;7.78;;;6.05;;
69401;SDS011;56589;51.992;5.924;2023-04-01T05:22:26;9.13;;;5.50;;
69401;SDS011;56589;51.992;5.924;2023-04-01T05:24:51;7.00;;;5.28;;
69401;SDS011;56589;51.992;5.924;2023-04-01T05:27:17;8.15;;;5.22;;
69401;SDS011;56589;51.992;5.924;2023-04-01T05:29:45;5.78;;;4.53;;
69401;SDS011;56589;51.992;5.924;2023-04-01T05:32:11;5.72;;;4.50;;
69401;SDS011;56589;51.992;5.924;2023-04-01T05:34:37;6.80;;;4.45;;
69401;SDS011;56589;51.992;5.924;2023-04-01T05:37:03;4.95;;;3.85;;
69401;SDS011;56589;51.992;5.924;2023-04-01T05:39:29;5.28;;;3.63;;
69401;SDS011;56589;51.992;5.924;2023-04-01T05:41:55;4.78;;;3.47;;
69401;SDS011;56589;51.992;5.924;2023-04-01T05:44:20;6.18;;;3.90;;
69401;SDS011;56589;51.992;5.924;2023-04-01T05:46:49;5.25;;;3.38;;
69401;SDS011;56589;51.992;5.924;2023-04-01T05:49:15;3.88;;;3.47;;
69401;SDS011;56589;51.992;5.924;2023-04-01T05:51:41;4.45;;;2.85;;
69401;SDS011;56589;51.992;5.924;2023-04-01T05:54:06;4.97;;;3.63;;
69401;SDS011;56589;51.992;5.924;2023-04-01T05:56:32;5.15;;;3.40;;
69401;SDS011;56589;51.992;5.924;2023-04-01T05:58:58;5.55;;;3.75;;
69401;SDS011;56589;51.992;5.924;2023-04-01T06:01:24;7.32;;;4.40;;
69401;SDS011;56589;51.992;5.924;2023-04-01T06:03:52;6.35;;;4.45;;
69401;SDS011;56589;51.992;5.924;2023-04-01T06:06:20;6.90;;;4.43;;
69401;SDS011;56589;51.992;5.924;2023-04-01T06:08:50;9.88;;;5.88;;
69401;SDS011;56589;51.992;5.924;2023-04-01T06:11:19;9.40;;;5.72;;
69401;SDS011;56589;51.992;5.924;2023-04-01T06:14:16;10.63;;;5.53;;
69401;SDS011;56589;51.992;5.924;2023-04-01T06:17:02;11.18;;;5.28;;
69401;SDS011;56589;51.992;5.924;2023-04-01T06:19:54;13.43;;;6.65;;
69401;SDS011;56589;51.992;5.924;2023-04-01T06:22:43;12.57;;;7.03;;
69401;SDS011;56589;51.992;5.924;2023-04-01T06:25:38;12.60;;;7.07;;
69401;SDS011;56589;51.992;5.924;2023-04-01T06:31:46;14.95;;;6.88;;
69401;SDS011;56589;51.992;5.924;2023-04-01T06:34:47;13.95;;;6.85;;
69401;SDS011;56589;51.992;5.924;2023-04-01T06:41:38;13.88;;;7.60;;
69401;SDS011;56589;51.992;5.924;2023-04-01T06:44:37;16.27;;;7.18;;
69401;SDS011;56589;51.992;5.924;2023-04-01T06:47:21;16.23;;;7.80;;
69401;SDS011;56589;51.992;5.924;2023-04-01T06:50:05;15.15;;;7.53;;
69401;SDS011;56589;51.992;5.924;2023-04-01T06:52:47;13.10;;;6.73;;
69401;SDS011;56589;51.992;5.924;2023-04-01T06:55:25;13.45;;;6.53;;
69401;SDS011;56589;51.992;5.924;2023-04-01T06:58:00;8.90;;;4.88;;
69401;SDS011;56589;51.992;5.924;2023-04-01T07:00:32;8.35;;;4.40;;
69401;SDS011;56589;51.992;5.924;2023-04-01T07:03:05;8.68;;;4.97;;
69401;SDS011;56589;51.992;5.924;2023-04-01T07:05:44;8.07;;;4.18;;
69401;SDS011;56589;51.992;5.924;2023-04-01T07:08:11;9.30;;;4.97;;
69401;SDS011;56589;51.992;5.924;2023-04-01T07:10:43;10.43;;;4.90;;
69401;SDS011;56589;51.992;5.924;2023-04-01T07:13:17;8.48;;;4.47;;
69401;SDS011;56589;51.992;5.924;2023-04-01T07:15:54;7.80;;;4.18;;
69401;SDS011;56589;51.992;5.924;2023-04-01T07:18:37;7.35;;;3.97;;
69401;SDS011;56589;51.992;5.924;2023-04-01T07:21:17;7.03;;;3.83;;
69401;SDS011;56589;51.992;5.924;2023-04-01T07:23:52;5.75;;;3.65;;
69401;SDS011;56589;51.992;5.924;2023-04-01T07:26:24;7.20;;;3.43;;
69401;SDS011;56589;51.992;5.924;2023-04-01T07:28:50;5.15;;;2.78;;
69401;SDS011;56589;51.992;5.924;2023-04-01T07:31:20;3.95;;;2.60;;
69401;SDS011;56589;51.992;5.924;2023-04-01T07:34:19;4.63;;;2.63;;
69401;SDS011;56589;51.992;5.924;2023-04-01T07:36:56;3.63;;;2.20;;
69401;SDS011;56589;51.992;5.924;2023-04-01T07:39:35;6.47;;;2.33;;
69401;SDS011;56589;51.992;5.924;2023-04-01T07:42:16;3.55;;;2.17;;
69401;SDS011;56589;51.992;5.924;2023-04-01T07:47:38;3.72;;;1.98;;
69401;SDS011;56589;51.992;5.924;2023-04-01T07:50:18;3.58;;;2.25;;
69401;SDS011;56589;51.992;5.924;2023-04-01T07:52:57;3.15;;;1.70;;
69401;SDS011;56589;51.992;5.924;2023-04-01T07:55:37;2.13;;;1.55;;
69401;SDS011;56589;51.992;5.924;2023-04-01T07:58:12;4.22;;;1.73;;
69401;SDS011;56589;51.992;5.924;2023-04-01T08:00:49;3.03;;;1.77;;
69401;SDS011;56589;51.992;5.924;2023-04-01T08:03:31;3.05;;;1.45;;
69401;SDS011;56589;51.992;5.924;2023-04-01T08:06:11;3.20;;;1.73;;
69401;SDS011;56589;51.992;5.924;2023-04-01T08:08:50;4.32;;;2.00;;
69401;SDS011;56589;51.992;5.924;2023-04-01T08:11:32;4.55;;;2.20;;
69401;SDS011;56589;51.992;5.924;2023-04-01T08:14:17;3.80;;;2.08;;
69401;SDS011;56589;51.992;5.924;2023-04-01T08:16:56;2.83;;;2.15;;
69401;SDS011;56589;51.992;5.924;2023-04-01T08:19:31;3.38;;;2.15;;
69401;SDS011;56589;51.992;5.924;2023-04-01T08:22:20;4.18;;;2.00;;
69401;SDS011;56589;51.992;5.924;2023-04-01T08:27:45;2.45;;;1.60;;
69401;SDS011;56589;51.992;5.924;2023-04-01T08:30:17;2.50;;;1.52;;
69401;SDS011;56589;51.992;5.924;2023-04-01T08:32:49;2.50;;;1.73;;
69401;SDS011;56589;51.992;5.924;2023-04-01T08:35:29;2.33;;;1.30;;
69401;SDS011;56589;51.992;5.924;2023-04-01T08:38:04;2.42;;;1.77;;
69401;SDS011;56589;51.992;5.924;2023-04-01T08:40:46;2.45;;;1.70;;
69401;SDS011;56589;51.992;5.924;2023-04-01T08:43:39;2.08;;;1.40;;
69401;SDS011;56589;51.992;5.924;2023-04-01T08:49:33;2.47;;;1.30;;
69401;SDS011;56589;51.992;5.924;2023-04-01T08:52:24;1.75;;;0.82;;
69401;SDS011;56589;51.992;5.924;2023-04-01T09:01:22;1.30;;;0.40;;
69401;SDS011;56589;51.992;5.924;2023-04-01T09:04:13;0.75;;;0.60;;
69401;SDS011;56589;51.992;5.924;2023-04-01T09:06:54;0.82;;;0.38;;
69401;SDS011;56589;51.992;5.924;2023-04-01T09:09:40;1.33;;;0.60;;
69401;SDS011;56589;51.992;5.924;2023-04-01T09:12:57;0.67;;;0.50;;
69401;SDS011;56589;51.992;5.924;2023-04-01T09:15:53;2.22;;;0.80;;
69401;SDS011;56589;51.992;5.924;2023-04-01T09:19:16;0.90;;;0.60;;
69401;SDS011;56589;51.992;5.924;2023-04-01T09:21:57;0.68;;;0.60;;
69401;SDS011;56589;51.992;5.924;2023-04-01T09:25:15;2.42;;;0.70;;
69401;SDS011;56589;51.992;5.924;2023-04-01T09:28:14;1.08;;;0.60;;
69401;SDS011;56589;51.992;5.924;2023-04-01T09:30:52;0.95;;;0.65;;
69401;SDS011;56589;51.992;5.924;2023-04-01T09:33:53;1.95;;;1.00;;
69401;SDS011;56589;51.992;5.924;2023-04-01T09:36:45;2.15;;;1.02;;
69401;SDS011;56589;51.992;5.924;2023-04-01T09:39:19;3.90;;;0.90;;
69401;SDS011;56589;51.992;5.924;2023-04-01T09:42:14;2.38;;;1.10;;
69401;SDS011;56589;51.992;5.924;2023-04-01T09:45:10;1.42;;;0.90;;
69401;SDS011;56589;51.992;5.924;2023-04-01T09:48:00;2.17;;;0.90;;
69401;SDS011;56589;51.992;5.924;2023-04-01T09:50:42;1.75;;;0.95;;
69401;SDS011;56589;51.992;5.924;2023-04-01T09:53:29;1.08;;;0.80;;
69401;SDS011;56589;51.992;5.924;2023-04-01T10:05:48;1.65;;;1.20;;
69401;SDS011;56589;51.992;5.924;2023-04-01T10:09:06;2.53;;;1.33;;
69401;SDS011;56589;51.992;5.924;2023-04-01T10:12:34;6.20;;;1.63;;
69401;SDS011;56589;51.992;5.924;2023-04-01T10:15:51;3.10;;;1.70;;
69401;SDS011;56589;51.992;5.924;2023-04-01T10:18:58;3.20;;;1.98;;
69401;SDS011;56589;51.992;5.924;2023-04-01T10:22:00;3.58;;;1.80;;
69401;SDS011;56589;51.992;5.924;2023-04-01T10:24:53;3.38;;;2.20;;
69401;SDS011;56589;51.992;5.924;2023-04-01T10:28:03;3.40;;;2.38;;
69401;SDS011;56589;51.992;5.924;2023-04-01T10:37:23;3.93;;;2.63;;
69401;SDS011;56589;51.992;5.924;2023-04-01T10:40:24;8.77;;;2.60;;
69401;SDS011;56589;51.992;5.924;2023-04-01T10:43:23;5.05;;;2.85;;
69401;SDS011;56589;51.992;5.924;2023-04-01T10:46:25;4.20;;;2.85;;
69401;SDS011;56589;51.992;5.924;2023-04-01T10:56:15;4.07;;;2.97;;
69401;SDS011;56589;51.992;5.924;2023-04-01T11:06:21;4.43;;;3.78;;
69401;SDS011;56589;51.992;5.924;2023-04-01T11:09:42;5.03;;;3.78;;
69401;SDS011;56589;51.992;5.924;2023-04-01T11:19:30;4.75;;;3.65;;
69401;SDS011;56589;51.992;5.924;2023-04-01T11:23:00;3.80;;;2.93;;
69401;SDS011;56589;51.992;5.924;2023-04-01T11:28:42;1.35;;;1.00;;
69401;SDS011;56589;51.992;5.924;2023-04-01T11:31:47;1.70;;;1.30;;
69401;SDS011;56589;51.992;5.924;2023-04-01T11:34:40;2.75;;;1.40;;
69401;SDS011;56589;51.992;5.924;2023-04-01T11:37:28;0.60;;;0.60;;
69401;SDS011;56589;51.992;5.924;2023-04-01T11:40:11;1.45;;;0.63;;
69401;SDS011;56589;51.992;5.924;2023-04-01T11:42:49;0.93;;;0.70;;
69401;SDS011;56589;51.992;5.924;2023-04-01T11:45:29;1.35;;;0.80;;
69401;SDS011;56589;51.992;5.924;2023-04-01T11:48:17;2.08;;;0.85;;
69401;SDS011;56589;51.992;5.924;2023-04-01T11:54:00;1.52;;;0.77;;
69401;SDS011;56589;51.992;5.924;2023-04-01T11:56:48;1.80;;;1.08;;
69401;SDS011;56589;51.992;5.924;2023-04-01T11:59:41;1.90;;;0.70;;
69401;SDS011;56589;51.992;5.924;2023-04-01T12:02:46;1.35;;;1.00;;
69401;SDS011;56589;51.992;5.924;2023-04-01T12:05:39;1.90;;;0.80;;
69401;SDS011;56589;51.992;5.924;2023-04-01T12:08:15;1.80;;;0.85;;
69401;SDS011;56589;51.992;5.924;2023-04-01T12:11:04;2.63;;;1.00;;
69401;SDS011;56589;51.992;5.924;2023-04-01T12:13:45;2.85;;;1.00;;
69401;SDS011;56589;51.992;5.924;2023-04-01T12:16:37;3.55;;;1.08;;
69401;SDS011;56589;51.992;5.924;2023-04-01T12:19:18;2.80;;;1.10;;
69401;SDS011;56589;51.992;5.924;2023-04-01T12:22:04;1.95;;;1.00;;
69401;SDS011;56589;51.992;5.924;2023-04-01T12:24:56;2.10;;;0.98;;
69401;SDS011;56589;51.992;5.924;2023-04-01T12:27:43;3.10;;;1.20;;
69401;SDS011;56589;51.992;5.924;2023-04-01T12:30:30;1.40;;;1.02;;
69401;SDS011;56589;51.992;5.924;2023-04-01T12:33:19;3.28;;;1.20;;
69401;SDS011;56589;51.992;5.924;2023-04-01T12:36:24;2.50;;;1.10;;
69401;SDS011;56589;51.992;5.924;2023-04-01T12:42:34;2.20;;;1.20;;
69401;SDS011;56589;51.992;5.924;2023-04-01T12:45:27;1.63;;;1.13;;
69401;SDS011;56589;51.992;5.924;2023-04-01T12:48:10;1.67;;;1.00;;
69401;SDS011;56589;51.992;5.924;2023-04-01T12:54:07;2.28;;;1.20;;
69401;SDS011;56589;51.992;5.924;2023-04-01T12:57:20;1.40;;;1.20;;
69401;SDS011;56589;51.992;5.924;2023-04-01T13:00:23;1.50;;;1.17;;
69401;SDS011;56589;51.992;5.924;2023-04-01T13:03:09;1.75;;;1.48;;
69401;SDS011;56589;51.992;5.924;2023-04-01T13:06:10;3.53;;;1.25;;
69401;SDS011;56589;51.992;5.924;2023-04-01T13:09:06;1.00;;;0.90;;
69401;SDS011;56589;51.992;5.924;2023-04-01T13:11:54;1.33;;;0.98;;
69401;SDS011;56589;51.992;5.924;2023-04-01T13:17:49;2.38;;;1.27;;
69401;SDS011;56589;51.992;5.924;2023-04-01T13:20:26;1.70;;;1.30;;
69401;SDS011;56589;51.992;5.924;2023-04-01T13:23:11;2.85;;;1.48;;
69401;SDS011;56589;51.992;5.924;2023-04-01T13:26:00;3.03;;;1.15;;
69401;SDS011;56589;51.992;5.924;2023-04-01T13:28:44;1.60;;;1.17;;
69401;SDS011;56589;51.992;5.924;2023-04-01T13:31:25;1.30;;;1.20;;
69401;SDS011;56589;51.992;5.924;2023-04-01T13:34:23;1.95;;;1.30;;
69401;SDS011;56589;51.992;5.924;2023-04-01T13:37:09;1.40;;;0.70;;
69401;SDS011;56589;51.992;5.924;2023-04-01T13:40:02;1.08;;;0.98;;
69401;SDS011;56589;51.992;5.924;2023-04-01T13:42:49;2.10;;;0.57;;
69401;SDS011;56589;51.992;5.924;2023-04-01T13:45:26;1.33;;;0.65;;
69401;SDS011;56589;51.992;5.924;2023-04-01T13:51:25;5.30;;;0.57;;
69401;SDS011;56589;51.992;5.924;2023-04-01T13:54:33;2.53;;;0.80;;
69401;SDS011;56589;51.992;5.924;2023-04-01T14:03:26;1.92;;;0.68;;
69401;SDS011;56589;51.992;5.924;2023-04-01T14:12:11;1.83;;;0.90;;
69401;SDS011;56589;51.992;5.924;2023-04-01T14:14:56;3.05;;;1.20;;
69401;SDS011;56589;51.992;5.924;2023-04-01T14:17:46;2.45;;;1.10;;
69401;SDS011;56589;51.992;5.924;2023-04-01T14:20:36;1.50;;;1.23;;
69401;SDS011;56589;51.992;5.924;2023-04-01T14:26:50;1.80;;;1.20;;
69401;SDS011;56589;51.992;5.924;2023-04-01T14:29:45;1.95;;;1.35;;
69401;SDS011;56589;51.992;5.924;2023-04-01T14:32:31;2.28;;;1.52;;
69401;SDS011;56589;51.992;5.924;2023-04-01T14:35:16;6.28;;;1.98;;
69401;SDS011;56589;51.992;5.924;2023-04-01T14:38:02;3.17;;;1.80;;
69401;SDS011;56589;51.992;5.924;2023-04-01T14:40:54;5.13;;;1.30;;
69401;SDS011;56589;51.992;5.924;2023-04-01T14:46:34;2.67;;;1.13;;
69401;SDS011;56589;51.992;5.924;2023-04-01T14:49:43;1.10;;;0.95;;
69401;SDS011;56589;51.992;5.924;2023-04-01T14:52:14;1.15;;;0.85;;
69401;SDS011;56589;51.992;5.924;2023-04-01T14:54:50;1.25;;;0.98;;
69401;SDS011;56589;51.992;5.924;2023-04-01T14:57:23;1.42;;;0.85;;
69401;SDS011;56589;51.992;5.924;2023-04-01T14:59:53;1.45;;;0.73;;
69401;SDS011;56589;51.992;5.924;2023-04-01T15:05:25;1.85;;;1.00;;
69401;SDS011;56589;51.992;5.924;2023-04-01T15:08:11;1.67;;;1.25;;
69401;SDS011;56589;51.992;5.924;2023-04-01T15:10:51;1.20;;;1.10;;
69401;SDS011;56589;51.992;5.924;2023-04-01T15:27:25;3.83;;;2.80;;
69401;SDS011;56589;51.992;5.924;2023-04-01T15:30:22;5.10;;;2.83;;
69401;SDS011;56589;51.992;5.924;2023-04-01T15:45:16;5.78;;;4.28;;
69401;SDS011;56589;51.992;5.924;2023-04-01T15:48:01;5.35;;;4.03;;
69401;SDS011;56589;51.992;5.924;2023-04-01T15:50:51;4.82;;;3.70;;
69401;SDS011;56589;51.992;5.924;2023-04-01T15:56:45;4.57;;;3.30;;
69401;SDS011;56589;51.992;5.924;2023-04-01T15:59:44;4.07;;;3.08;;
69401;SDS011;56589;51.992;5.924;2023-04-01T16:02:43;3.50;;;2.50;;
69401;SDS011;56589;51.992;5.924;2023-04-01T16:08:16;3.50;;;3.00;;
69401;SDS011;56589;51.992;5.924;2023-04-01T17:13:18;6.40;;;4.82;;
69401;SDS011;56589;51.992;5.924;2023-04-01T17:16:10;6.50;;;5.00;;
69401;SDS011;56589;51.992;5.924;2023-04-01T17:18:55;5.90;;;4.78;;
69401;SDS011;56589;51.992;5.924;2023-04-01T17:21:45;6.50;;;4.90;;
69401;SDS011;56589;51.992;5.924;2023-04-01T17:27:05;5.50;;;4.20;;
69401;SDS011;56589;51.992;5.924;2023-04-01T17:30:02;4.35;;;3.90;;
69401;SDS011;56589;51.992;5.924;2023-04-01T17:32:54;4.63;;;3.90;;
69401;SDS011;56589;51.992;5.924;2023-04-01T17:36:01;3.97;;;3.13;;
69401;SDS011;56589;51.992;5.924;2023-04-01T17:38:45;3.97;;;3.40;;
69401;SDS011;56589;51.992;5.924;2023-04-01T17:41:37;5.30;;;3.50;;
69401;SDS011;56589;51.992;5.924;2023-04-01T17:44:20;5.00;;;3.50;;
69401;SDS011;56589;51.992;5.924;2023-04-01T17:47:12;3.85;;;3.35;;
69401;SDS011;56589;51.992;5.924;2023-04-01T17:49:59;5.23;;;3.93;;
69401;SDS011;56589;51.992;5.924;2023-04-01T17:52:45;6.45;;;3.72;;
69401;SDS011;56589;51.992;5.924;2023-04-01T17:55:31;5.35;;;4.70;;
69401;SDS011;56589;51.992;5.924;2023-04-01T17:58:12;5.10;;;4.00;;
69401;SDS011;56589;51.992;5.924;2023-04-01T18:00:50;5.38;;;3.78;;
69401;SDS011;56589;51.992;5.924;2023-04-01T18:06:36;4.60;;;3.88;;
69401;SDS011;56589;51.992;5.924;2023-04-01T18:11:58;4.93;;;4.00;;
69401;SDS011;56589;51.992;5.924;2023-04-01T18:14:47;5.72;;;4.72;;
69401;SDS011;56589;51.992;5.924;2023-04-01T18:17:43;5.10;;;4.50;;
69401;SDS011;56589;51.992;5.924;2023-04-01T19:01:04;10.75;;;7.05;;
69401;SDS011;56589;51.992;5.924;2023-04-01T19:03:43;10.20;;;8.10;;
69401;SDS011;56589;51.992;5.924;2023-04-01T19:06:23;8.73;;;7.45;;
69401;SDS011;56589;51.992;5.924;2023-04-01T19:08:58;8.10;;;6.88;;
69401;SDS011;56589;51.992;5.924;2023-04-01T19:11:43;9.15;;;5.78;;
69401;SDS011;56589;51.992;5.924;2023-04-01T19:14:38;7.35;;;6.25;;
69401;SDS011;56589;51.992;5.924;2023-04-01T19:17:21;9.73;;;6.38;;
69401;SDS011;56589;51.992;5.924;2023-04-01T19:20:04;6.13;;;5.28;;
69401;SDS011;56589;51.992;5.924;2023-04-01T19:22:50;7.13;;;6.32;;
69401;SDS011;56589;51.992;5.924;2023-04-01T19:25:39;8.20;;;6.30;;
69401;SDS011;56589;51.992;5.924;2023-04-01T19:28:17;7.70;;;6.78;;
69401;SDS011;56589;51.992;5.924;2023-04-01T19:31:03;7.45;;;6.43;;
69401;SDS011;56589;51.992;5.924;2023-04-01T19:33:48;6.53;;;5.45;;
69401;SDS011;56589;51.992;5.924;2023-04-01T19:36:35;7.15;;;5.55;;
69401;SDS011;56589;51.992;5.924;2023-04-01T19:39:14;6.20;;;5.60;;
69401;SDS011;56589;51.992;5.924;2023-04-01T19:42:04;7.22;;;5.00;;
69401;SDS011;56589;51.992;5.924;2023-04-01T19:44:48;6.85;;;5.00;;
69401;SDS011;56589;51.992;5.924;2023-04-01T19:47:39;5.57;;;5.00;;
69401;SDS011;56589;51.992;5.924;2023-04-01T19:50:26;5.70;;;4.80;;
69401;SDS011;56589;51.992;5.924;2023-04-01T19:52:59;5.22;;;4.70;;
69401;SDS011;56589;51.992;5.924;2023-04-01T19:55:39;6.05;;;5.45;;
69401;SDS011;56589;51.992;5.924;2023-04-01T19:58:14;6.28;;;5.53;;
69401;SDS011;56589;51.992;5.924;2023-04-01T20:00:51;6.97;;;6.10;;
69401;SDS011;56589;51.992;5.924;2023-04-01T20:03:32;9.07;;;7.15;;
69401;SDS011;56589;51.992;5.924;2023-04-01T20:06:10;9.82;;;7.00;;
69401;SDS011;56589;51.992;5.924;2023-04-01T20:08:49;7.78;;;7.03;;
69401;SDS011;56589;51.992;5.924;2023-04-01T20:11:39;7.88;;;6.32;;
69401;SDS011;56589;51.992;5.924;2023-04-01T20:14:21;7.68;;;6.35;;
69401;SDS011;56589;51.992;5.924;2023-04-01T20:17:17;8.50;;;6.40;;